sensor_id;sensor_type;location;lat;lon;timestamp;temperature;humidity
8172;DHT22;4127;47.908;10.850;2022-07-22T00:01:56;25.10;63.10
8172;DHT22;4127;47.908;10.850;2022-07-22T00:04:23;25.10;63.10
8172;DHT22;4127;47.908;10.850;2022-07-22T00:06:50;25.10;63.10
8172;DHT22;4127;47.908;10.850;2022-07-22T00:09:16;25.10;63.10
8172;DHT22;4127;47.908;10.850;2022-07-22T00:11:43;25.10;63.10
8172;DHT22;4127;47.908;10.850;2022-07-22T00:14:10;25.10;63.10
8172;DHT22;4127;47.908;10.850;2022-07-22T00:16:36;25.00;63.10
8172;DHT22;4127;47.908;10.850;2022-07-22T00:19:03;25.00;63.20
8172;DHT22;4127;47.908;10.850;2022-07-22T00:21:30;25.00;63.20
8172;DHT22;4127;47.908;10.850;2022-07-22T00:23:57;25.00;63.20
8172;DHT22;4127;47.908;10.850;2022-07-22T00:26:24;25.00;63.20
8172;DHT22;4127;47.908;10.850;2022-07-22T00:28:50;25.00;63.20
8172;DHT22;4127;47.908;10.850;2022-07-22T00:31:17;25.00;63.20
8172;DHT22;4127;47.908;10.850;2022-07-22T00:33:44;25.00;63.30
8172;DHT22;4127;47.908;10.850;2022-07-22T00:36:11;25.00;63.30
8172;DHT22;4127;47.908;10.850;2022-07-22T00:38:39;24.90;63.30
8172;DHT22;4127;47.908;10.850;2022-07-22T00:41:05;24.90;64.00
8172;DHT22;4127;47.908;10.850;2022-07-22T00:43:53;24.90;63.30
8172;DHT22;4127;47.908;10.850;2022-07-22T00:46:21;24.90;63.30
8172;DHT22;4127;47.908;10.850;2022-07-22T00:48:48;24.90;63.20
8172;DHT22;4127;47.908;10.850;2022-07-22T00:51:17;24.90;63.30
8172;DHT22;4127;47.908;10.850;2022-07-22T00:53:45;24.90;63.30
8172;DHT22;4127;47.908;10.850;2022-07-22T00:56:13;24.90;63.20
8172;DHT22;4127;47.908;10.850;2022-07-22T00:58:41;24.90;63.30
8172;DHT22;4127;47.908;10.850;2022-07-22T01:01:08;24.90;63.20
8172;DHT22;4127;47.908;10.850;2022-07-22T01:03:36;24.90;63.30
8172;DHT22;4127;47.908;10.850;2022-07-22T01:06:06;24.90;63.40
8172;DHT22;4127;47.908;10.850;2022-07-22T01:08:33;24.90;63.30
8172;DHT22;4127;47.908;10.850;2022-07-22T01:11:11;24.90;63.20
8172;DHT22;4127;47.908;10.850;2022-07-22T01:13:39;24.90;63.30
8172;DHT22;4127;47.908;10.850;2022-07-22T01:16:07;24.90;63.10
8172;DHT22;4127;47.908;10.850;2022-07-22T01:18:35;24.90;63.10
8172;DHT22;4127;47.908;10.850;2022-07-22T01:21:05;24.90;63.10
8172;DHT22;4127;47.908;10.850;2022-07-22T01:23:32;24.90;63.10
8172;DHT22;4127;47.908;10.850;2022-07-22T01:26:00;25.00;63.10
8172;DHT22;4127;47.908;10.850;2022-07-22T01:28:27;25.00;63.00
8172;DHT22;4127;47.908;10.850;2022-07-22T01:30:54;25.00;63.00
8172;DHT22;4127;47.908;10.850;2022-07-22T01:33:22;25.00;63.00
8172;DHT22;4127;47.908;10.850;2022-07-22T01:35:50;25.00;62.90
8172;DHT22;4127;47.908;10.850;2022-07-22T01:38:17;25.00;62.90
8172;DHT22;4127;47.908;10.850;2022-07-22T01:40:46;25.10;62.80
8172;DHT22;4127;47.908;10.850;2022-07-22T01:43:13;25.10;62.80
8172;DHT22;4127;47.908;10.850;2022-07-22T01:45:45;25.10;62.80
8172;DHT22;4127;47.908;10.850;2022-07-22T01:48:12;25.10;62.80
8172;DHT22;4127;47.908;10.850;2022-07-22T01:50:40;25.10;62.80
8172;DHT22;4127;47.908;10.850;2022-07-22T01:53:07;25.10;62.70
8172;DHT22;4127;47.908;10.850;2022-07-22T01:55:34;25.00;62.60
8172;DHT22;4127;47.908;10.850;2022-07-22T01:58:01;25.00;62.60
8172;DHT22;4127;47.908;10.850;2022-07-22T02:00:31;25.00;62.70
8172;DHT22;4127;47.908;10.850;2022-07-22T02:02:58;24.40;62.30
8172;DHT22;4127;47.908;10.850;2022-07-22T02:05:25;25.00;62.70
8172;DHT22;4127;47.908;10.850;2022-07-22T02:07:52;25.00;62.70
8172;DHT22;4127;47.908;10.850;2022-07-22T02:10:18;25.00;62.80
8172;DHT22;4127;47.908;10.850;2022-07-22T02:12:45;25.00;62.70
8172;DHT22;4127;47.908;10.850;2022-07-22T02:15:12;25.00;62.70
8172;DHT22;4127;47.908;10.850;2022-07-22T02:17:39;25.00;62.60
8172;DHT22;4127;47.908;10.850;2022-07-22T02:20:06;25.00;62.40
8172;DHT22;4127;47.908;10.850;2022-07-22T02:22:33;25.00;62.40
8172;DHT22;4127;47.908;10.850;2022-07-22T02:24:59;25.00;62.50
8172;DHT22;4127;47.908;10.850;2022-07-22T02:27:26;24.90;62.50
8172;DHT22;4127;47.908;10.850;2022-07-22T02:29:53;24.90;62.50
8172;DHT22;4127;47.908;10.850;2022-07-22T02:32:20;24.90;62.50
8172;DHT22;4127;47.908;10.850;2022-07-22T02:34:48;24.90;62.50
8172;DHT22;4127;47.908;10.850;2022-07-22T02:37:15;24.90;62.60
8172;DHT22;4127;47.908;10.850;2022-07-22T02:39:43;24.90;62.60
8172;DHT22;4127;47.908;10.850;2022-07-22T02:42:10;24.90;62.70
8172;DHT22;4127;47.908;10.850;2022-07-22T02:44:37;24.80;62.60
8172;DHT22;4127;47.908;10.850;2022-07-22T02:47:04;24.90;62.80
8172;DHT22;4127;47.908;10.850;2022-07-22T02:49:31;24.80;62.70
8172;DHT22;4127;47.908;10.850;2022-07-22T02:51:58;24.80;62.70
8172;DHT22;4127;47.908;10.850;2022-07-22T02:54:24;24.80;62.60
8172;DHT22;4127;47.908;10.850;2022-07-22T02:56:51;24.70;62.50
8172;DHT22;4127;47.908;10.850;2022-07-22T02:59:18;24.70;62.60
8172;DHT22;4127;47.908;10.850;2022-07-22T03:01:45;24.70;62.70
8172;DHT22;4127;47.908;10.850;2022-07-22T03:04:12;24.70;62.70
8172;DHT22;4127;47.908;10.850;2022-07-22T03:06:39;24.70;62.70
8172;DHT22;4127;47.908;10.850;2022-07-22T03:09:05;24.70;62.50
8172;DHT22;4127;47.908;10.850;2022-07-22T03:11:32;24.70;62.60
8172;DHT22;4127;47.908;10.850;2022-07-22T03:13:59;24.70;62.70
8172;DHT22;4127;47.908;10.850;2022-07-22T03:16:26;24.70;62.70
8172;DHT22;4127;47.908;10.850;2022-07-22T03:18:53;24.70;62.60
8172;DHT22;4127;47.908;10.850;2022-07-22T03:21:20;24.80;62.60
8172;DHT22;4127;47.908;10.850;2022-07-22T03:23:47;24.80;62.50
8172;DHT22;4127;47.908;10.850;2022-07-22T03:26:14;24.80;62.50
8172;DHT22;4127;47.908;10.850;2022-07-22T03:28:40;24.80;62.50
8172;DHT22;4127;47.908;10.850;2022-07-22T03:31:07;24.80;62.30
8172;DHT22;4127;47.908;10.850;2022-07-22T03:33:34;24.70;62.30
8172;DHT22;4127;47.908;10.850;2022-07-22T03:36:01;24.70;62.30
8172;DHT22;4127;47.908;10.850;2022-07-22T03:38:28;24.70;62.50
8172;DHT22;4127;47.908;10.850;2022-07-22T03:40:54;24.70;62.50
8172;DHT22;4127;47.908;10.850;2022-07-22T03:43:22;24.70;62.40
8172;DHT22;4127;47.908;10.850;2022-07-22T03:45:49;24.70;62.30
8172;DHT22;4127;47.908;10.850;2022-07-22T03:48:15;24.70;62.30
8172;DHT22;4127;47.908;10.850;2022-07-22T03:50:42;24.70;62.40
8172;DHT22;4127;47.908;10.850;2022-07-22T03:53:10;24.70;62.40
8172;DHT22;4127;47.908;10.850;2022-07-22T03:55:36;24.70;62.30
8172;DHT22;4127;47.908;10.850;2022-07-22T03:58:03;24.70;62.30
8172;DHT22;4127;47.908;10.850;2022-07-22T04:00:30;24.70;62.10
8172;DHT22;4127;47.908;10.850;2022-07-22T04:02:57;24.70;62.10
8172;DHT22;4127;47.908;10.850;2022-07-22T04:05:24;24.70;62.30
8172;DHT22;4127;47.908;10.850;2022-07-22T04:07:51;24.70;62.20
8172;DHT22;4127;47.908;10.850;2022-07-22T04:10:17;24.70;62.30
8172;DHT22;4127;47.908;10.850;2022-07-22T04:12:44;24.60;62.20
8172;DHT22;4127;47.908;10.850;2022-07-22T04:15:11;24.60;62.20
8172;DHT22;4127;47.908;10.850;2022-07-22T04:17:38;24.60;62.30
8172;DHT22;4127;47.908;10.850;2022-07-22T04:20:05;24.60;62.30
8172;DHT22;4127;47.908;10.850;2022-07-22T04:22:32;24.50;62.30
8172;DHT22;4127;47.908;10.850;2022-07-22T04:24:59;24.60;62.40
8172;DHT22;4127;47.908;10.850;2022-07-22T04:27:26;24.50;62.40
8172;DHT22;4127;47.908;10.850;2022-07-22T04:29:53;24.60;62.50
8172;DHT22;4127;47.908;10.850;2022-07-22T04:32:19;24.50;62.30
8172;DHT22;4127;47.908;10.850;2022-07-22T04:34:46;24.50;62.40
8172;DHT22;4127;47.908;10.850;2022-07-22T04:37:13;24.50;62.40
8172;DHT22;4127;47.908;10.850;2022-07-22T04:39:40;24.50;62.50
8172;DHT22;4127;47.908;10.850;2022-07-22T04:42:07;24.50;62.40
8172;DHT22;4127;47.908;10.850;2022-07-22T04:44:34;24.60;62.50
8172;DHT22;4127;47.908;10.850;2022-07-22T04:47:00;24.50;62.40
8172;DHT22;4127;47.908;10.850;2022-07-22T04:49:34;24.60;62.50
8172;DHT22;4127;47.908;10.850;2022-07-22T04:52:01;24.60;62.50
8172;DHT22;4127;47.908;10.850;2022-07-22T04:54:28;24.60;62.50
8172;DHT22;4127;47.908;10.850;2022-07-22T04:56:55;24.60;62.50
8172;DHT22;4127;47.908;10.850;2022-07-22T04:59:22;24.60;62.40
8172;DHT22;4127;47.908;10.850;2022-07-22T05:01:49;24.60;62.40
8172;DHT22;4127;47.908;10.850;2022-07-22T05:04:16;24.60;62.30
8172;DHT22;4127;47.908;10.850;2022-07-22T05:06:43;24.60;63.10
8172;DHT22;4127;47.908;10.850;2022-07-22T05:09:10;24.60;62.30
8172;DHT22;4127;47.908;10.850;2022-07-22T05:11:37;24.70;62.40
8172;DHT22;4127;47.908;10.850;2022-07-22T05:14:04;24.70;62.50
8172;DHT22;4127;47.908;10.850;2022-07-22T05:16:30;24.60;62.60
8172;DHT22;4127;47.908;10.850;2022-07-22T05:18:57;24.50;62.80
8172;DHT22;4127;47.908;10.850;2022-07-22T05:21:25;24.40;63.30
8172;DHT22;4127;47.908;10.850;2022-07-22T05:23:52;24.30;63.80
8172;DHT22;4127;47.908;10.850;2022-07-22T05:26:18;24.10;64.20
8172;DHT22;4127;47.908;10.850;2022-07-22T05:28:45;24.00;64.80
8172;DHT22;4127;47.908;10.850;2022-07-22T05:31:12;23.90;65.10
8172;DHT22;4127;47.908;10.850;2022-07-22T05:33:39;23.80;65.80
8172;DHT22;4127;47.908;10.850;2022-07-22T05:36:06;23.70;66.30
8172;DHT22;4127;47.908;10.850;2022-07-22T05:38:35;23.70;66.50
8172;DHT22;4127;47.908;10.850;2022-07-22T05:41:02;23.70;65.90
8172;DHT22;4127;47.908;10.850;2022-07-22T05:43:29;23.90;65.40
8172;DHT22;4127;47.908;10.850;2022-07-22T05:45:56;24.00;65.90
8172;DHT22;4127;47.908;10.850;2022-07-22T05:48:23;24.20;66.30
8172;DHT22;4127;47.908;10.850;2022-07-22T05:50:50;24.20;66.40
8172;DHT22;4127;47.908;10.850;2022-07-22T05:53:16;24.20;66.20
8172;DHT22;4127;47.908;10.850;2022-07-22T05:55:43;24.30;66.70
8172;DHT22;4127;47.908;10.850;2022-07-22T05:58:10;24.30;66.50
8172;DHT22;4127;47.908;10.850;2022-07-22T06:00:37;24.30;66.70
8172;DHT22;4127;47.908;10.850;2022-07-22T06:03:06;24.30;67.40
8172;DHT22;4127;47.908;10.850;2022-07-22T06:05:33;24.30;67.30
8172;DHT22;4127;47.908;10.850;2022-07-22T06:08:04;24.30;67.90
8172;DHT22;4127;47.908;10.850;2022-07-22T06:10:31;24.30;68.50
8172;DHT22;4127;47.908;10.850;2022-07-22T06:12:57;24.30;69.10
8172;DHT22;4127;47.908;10.850;2022-07-22T06:15:24;24.30;69.70
8172;DHT22;4127;47.908;10.850;2022-07-22T06:17:53;24.20;69.30
8172;DHT22;4127;47.908;10.850;2022-07-22T06:20:20;24.20;70.30
8172;DHT22;4127;47.908;10.850;2022-07-22T06:22:47;24.00;70.90
8172;DHT22;4127;47.908;10.850;2022-07-22T06:25:13;23.90;71.80
8172;DHT22;4127;47.908;10.850;2022-07-22T06:28:00;23.70;71.80
8172;DHT22;4127;47.908;10.850;2022-07-22T06:30:27;23.50;72.20
8172;DHT22;4127;47.908;10.850;2022-07-22T06:32:54;23.50;72.80
8172;DHT22;4127;47.908;10.850;2022-07-22T06:35:22;23.40;73.50
8172;DHT22;4127;47.908;10.850;2022-07-22T06:37:52;23.40;72.80
8172;DHT22;4127;47.908;10.850;2022-07-22T06:40:32;23.40;72.30
8172;DHT22;4127;47.908;10.850;2022-07-22T06:43:00;23.30;72.30
8172;DHT22;4127;47.908;10.850;2022-07-22T06:45:27;23.30;72.50
8172;DHT22;4127;47.908;10.850;2022-07-22T06:47:54;23.30;71.10
8172;DHT22;4127;47.908;10.850;2022-07-22T06:50:21;23.40;71.80
8172;DHT22;4127;47.908;10.850;2022-07-22T06:52:50;23.40;71.80
8172;DHT22;4127;47.908;10.850;2022-07-22T06:55:17;23.40;71.50
8172;DHT22;4127;47.908;10.850;2022-07-22T06:57:43;23.40;72.40
8172;DHT22;4127;47.908;10.850;2022-07-22T07:00:11;23.40;72.50
8172;DHT22;4127;47.908;10.850;2022-07-22T07:02:38;23.40;72.30
8172;DHT22;4127;47.908;10.850;2022-07-22T07:05:05;23.50;71.10
8172;DHT22;4127;47.908;10.850;2022-07-22T07:07:32;23.50;72.70
8172;DHT22;4127;47.908;10.850;2022-07-22T07:10:03;23.50;73.20
8172;DHT22;4127;47.908;10.850;2022-07-22T07:12:34;23.50;73.90
8172;DHT22;4127;47.908;10.850;2022-07-22T07:15:04;23.50;72.90
8172;DHT22;4127;47.908;10.850;2022-07-22T07:17:54;23.60;72.80
8172;DHT22;4127;47.908;10.850;2022-07-22T07:20:22;23.60;73.00
8172;DHT22;4127;47.908;10.850;2022-07-22T07:22:49;23.60;73.90
8172;DHT22;4127;47.908;10.850;2022-07-22T07:25:16;23.60;73.70
8172;DHT22;4127;47.908;10.850;2022-07-22T07:27:49;23.60;73.30
8172;DHT22;4127;47.908;10.850;2022-07-22T07:30:16;23.60;73.30
8172;DHT22;4127;47.908;10.850;2022-07-22T07:32:43;23.70;73.30
8172;DHT22;4127;47.908;10.850;2022-07-22T07:35:10;23.70;73.70
8172;DHT22;4127;47.908;10.850;2022-07-22T07:37:37;23.80;74.10
8172;DHT22;4127;47.908;10.850;2022-07-22T07:40:07;23.80;73.00
8172;DHT22;4127;47.908;10.850;2022-07-22T07:42:34;23.90;73.40
8172;DHT22;4127;47.908;10.850;2022-07-22T07:45:05;23.90;73.70
8172;DHT22;4127;47.908;10.850;2022-07-22T07:47:32;23.90;72.60
8172;DHT22;4127;47.908;10.850;2022-07-22T07:49:59;23.90;73.10
8172;DHT22;4127;47.908;10.850;2022-07-22T07:52:28;23.90;72.80
8172;DHT22;4127;47.908;10.850;2022-07-22T07:54:55;24.00;72.20
8172;DHT22;4127;47.908;10.850;2022-07-22T07:57:39;24.00;71.70
8172;DHT22;4127;47.908;10.850;2022-07-22T08:00:10;24.10;73.30
8172;DHT22;4127;47.908;10.850;2022-07-22T08:02:38;24.10;72.50
8172;DHT22;4127;47.908;10.850;2022-07-22T08:05:08;24.20;71.90
8172;DHT22;4127;47.908;10.850;2022-07-22T08:07:36;24.20;72.00
8172;DHT22;4127;47.908;10.850;2022-07-22T08:10:07;24.30;71.30
8172;DHT22;4127;47.908;10.850;2022-07-22T08:12:54;24.30;71.00
8172;DHT22;4127;47.908;10.850;2022-07-22T08:15:22;24.40;71.20
8172;DHT22;4127;47.908;10.850;2022-07-22T08:17:51;24.40;70.70
8172;DHT22;4127;47.908;10.850;2022-07-22T08:20:22;24.40;70.90
8172;DHT22;4127;47.908;10.850;2022-07-22T08:22:49;24.50;70.70
8172;DHT22;4127;47.908;10.850;2022-07-22T08:25:17;24.50;70.20
8172;DHT22;4127;47.908;10.850;2022-07-22T08:27:44;24.60;70.00
8172;DHT22;4127;47.908;10.850;2022-07-22T08:30:11;24.60;69.70
8172;DHT22;4127;47.908;10.850;2022-07-22T08:32:39;24.70;69.90
8172;DHT22;4127;47.908;10.850;2022-07-22T08:35:06;24.70;70.10
8172;DHT22;4127;47.908;10.850;2022-07-22T08:37:33;24.70;70.00
8172;DHT22;4127;47.908;10.850;2022-07-22T08:40:00;24.70;69.60
8172;DHT22;4127;47.908;10.850;2022-07-22T08:42:28;24.80;69.20
8172;DHT22;4127;47.908;10.850;2022-07-22T08:44:55;24.80;68.90
8172;DHT22;4127;47.908;10.850;2022-07-22T08:47:30;24.90;68.30
8172;DHT22;4127;47.908;10.850;2022-07-22T08:50:09;24.90;68.20
8172;DHT22;4127;47.908;10.850;2022-07-22T08:52:37;24.90;67.80
8172;DHT22;4127;47.908;10.850;2022-07-22T08:55:06;24.90;67.50
8172;DHT22;4127;47.908;10.850;2022-07-22T08:57:34;24.90;67.40
8172;DHT22;4127;47.908;10.850;2022-07-22T09:00:08;25.00;67.10
8172;DHT22;4127;47.908;10.850;2022-07-22T09:02:38;25.00;66.60
8172;DHT22;4127;47.908;10.850;2022-07-22T09:05:07;25.00;66.80
8172;DHT22;4127;47.908;10.850;2022-07-22T09:07:57;25.00;66.60
8172;DHT22;4127;47.908;10.850;2022-07-22T09:10:32;25.10;66.70
8172;DHT22;4127;47.908;10.850;2022-07-22T09:13:01;25.10;66.60
8172;DHT22;4127;47.908;10.850;2022-07-22T09:17:57;25.10;66.30
8172;DHT22;4127;47.908;10.850;2022-07-22T09:20:30;25.20;66.50
8172;DHT22;4127;47.908;10.850;2022-07-22T09:22:57;25.20;66.40
8172;DHT22;4127;47.908;10.850;2022-07-22T09:25:36;25.20;66.20
8172;DHT22;4127;47.908;10.850;2022-07-22T09:30:54;25.20;65.80
8172;DHT22;4127;47.908;10.850;2022-07-22T09:33:24;25.30;65.90
8172;DHT22;4127;47.908;10.850;2022-07-22T09:35:52;25.30;65.80
8172;DHT22;4127;47.908;10.850;2022-07-22T09:38:27;25.30;65.80
8172;DHT22;4127;47.908;10.850;2022-07-22T09:40:59;25.40;65.50
8172;DHT22;4127;47.908;10.850;2022-07-22T09:43:26;25.40;65.30
8172;DHT22;4127;47.908;10.850;2022-07-22T09:45:59;25.40;65.40
8172;DHT22;4127;47.908;10.850;2022-07-22T09:48:26;25.40;65.50
8172;DHT22;4127;47.908;10.850;2022-07-22T09:50:55;25.40;65.40
8172;DHT22;4127;47.908;10.850;2022-07-22T09:53:27;25.40;65.10
8172;DHT22;4127;47.908;10.850;2022-07-22T09:56:00;25.50;65.10
8172;DHT22;4127;47.908;10.850;2022-07-22T09:58:27;25.50;65.00
8172;DHT22;4127;47.908;10.850;2022-07-22T10:00:57;25.40;65.20
8172;DHT22;4127;47.908;10.850;2022-07-22T10:03:27;25.50;65.20
8172;DHT22;4127;47.908;10.850;2022-07-22T10:05:55;25.60;65.20
8172;DHT22;4127;47.908;10.850;2022-07-22T10:08:24;25.60;65.30
8172;DHT22;4127;47.908;10.850;2022-07-22T10:10:52;25.60;64.90
8172;DHT22;4127;47.908;10.850;2022-07-22T10:13:22;25.60;64.90
8172;DHT22;4127;47.908;10.850;2022-07-22T10:15:49;25.60;64.90
8172;DHT22;4127;47.908;10.850;2022-07-22T10:18:18;25.60;65.10
8172;DHT22;4127;47.908;10.850;2022-07-22T10:20:46;25.60;65.10
8172;DHT22;4127;47.908;10.850;2022-07-22T10:23:14;25.60;65.00
8172;DHT22;4127;47.908;10.850;2022-07-22T10:25:50;25.60;65.00
8172;DHT22;4127;47.908;10.850;2022-07-22T10:28:22;25.60;65.10
8172;DHT22;4127;47.908;10.850;2022-07-22T10:30:49;25.60;65.10
8172;DHT22;4127;47.908;10.850;2022-07-22T10:33:18;25.60;65.20
8172;DHT22;4127;47.908;10.850;2022-07-22T10:35:54;25.60;65.20
8172;DHT22;4127;47.908;10.850;2022-07-22T10:38:22;25.60;65.20
8172;DHT22;4127;47.908;10.850;2022-07-22T10:41:09;25.60;65.20
8172;DHT22;4127;47.908;10.850;2022-07-22T10:46:10;25.60;65.00
8172;DHT22;4127;47.908;10.850;2022-07-22T10:51:22;25.60;65.00
8172;DHT22;4127;47.908;10.850;2022-07-22T10:53:58;25.70;65.00
8172;DHT22;4127;47.908;10.850;2022-07-22T10:56:29;25.70;64.80
8172;DHT22;4127;47.908;10.850;2022-07-22T11:01:25;25.70;64.80
8172;DHT22;4127;47.908;10.850;2022-07-22T11:03:56;25.70;64.80
8172;DHT22;4127;47.908;10.850;2022-07-22T11:06:26;25.70;64.80
8172;DHT22;4127;47.908;10.850;2022-07-22T11:09:14;25.70;64.80
8172;DHT22;4127;47.908;10.850;2022-07-22T11:16:49;25.70;65.50
8172;DHT22;4127;47.908;10.850;2022-07-22T11:19:28;25.70;64.70
8172;DHT22;4127;47.908;10.850;2022-07-22T11:22:04;25.70;64.80
8172;DHT22;4127;47.908;10.850;2022-07-22T11:24:32;25.70;64.70
8172;DHT22;4127;47.908;10.850;2022-07-22T11:27:00;25.80;64.70
8172;DHT22;4127;47.908;10.850;2022-07-22T11:29:37;25.80;64.80
8172;DHT22;4127;47.908;10.850;2022-07-22T11:32:09;25.80;64.80
8172;DHT22;4127;47.908;10.850;2022-07-22T11:34:38;25.80;64.80
8172;DHT22;4127;47.908;10.850;2022-07-22T11:37:09;25.80;64.80
8172;DHT22;4127;47.908;10.850;2022-07-22T11:39:36;25.80;64.70
8172;DHT22;4127;47.908;10.850;2022-07-22T11:42:04;25.80;64.80
8172;DHT22;4127;47.908;10.850;2022-07-22T11:44:34;25.90;64.90
8172;DHT22;4127;47.908;10.850;2022-07-22T11:47:02;25.80;64.80
8172;DHT22;4127;47.908;10.850;2022-07-22T11:49:33;25.90;64.80
8172;DHT22;4127;47.908;10.850;2022-07-22T11:52:10;25.90;64.80
8172;DHT22;4127;47.908;10.850;2022-07-22T11:54:42;25.90;64.90
8172;DHT22;4127;47.908;10.850;2022-07-22T11:57:09;25.90;65.00
8172;DHT22;4127;47.908;10.850;2022-07-22T11:59:36;25.90;64.90
8172;DHT22;4127;47.908;10.850;2022-07-22T12:02:04;25.90;64.90
8172;DHT22;4127;47.908;10.850;2022-07-22T12:04:33;25.90;64.90
8172;DHT22;4127;47.908;10.850;2022-07-22T12:07:02;25.90;64.80
8172;DHT22;4127;47.908;10.850;2022-07-22T12:09:36;26.00;65.00
8172;DHT22;4127;47.908;10.850;2022-07-22T12:12:04;26.00;64.80
8172;DHT22;4127;47.908;10.850;2022-07-22T12:14:33;26.00;64.80
8172;DHT22;4127;47.908;10.850;2022-07-22T12:17:06;26.00;64.80
8172;DHT22;4127;47.908;10.850;2022-07-22T12:19:36;26.00;64.80
8172;DHT22;4127;47.908;10.850;2022-07-22T12:22:24;26.00;64.90
8172;DHT22;4127;47.908;10.850;2022-07-22T12:25:03;26.00;64.80
8172;DHT22;4127;47.908;10.850;2022-07-22T12:27:31;26.00;64.80
8172;DHT22;4127;47.908;10.850;2022-07-22T12:29:58;26.10;65.20
8172;DHT22;4127;47.908;10.850;2022-07-22T12:32:27;26.10;65.10
8172;DHT22;4127;47.908;10.850;2022-07-22T12:34:55;26.10;64.90
8172;DHT22;4127;47.908;10.850;2022-07-22T12:37:26;26.10;64.90
8172;DHT22;4127;47.908;10.850;2022-07-22T12:42:39;26.10;64.70
8172;DHT22;4127;47.908;10.850;2022-07-22T12:45:15;26.10;64.80
8172;DHT22;4127;47.908;10.850;2022-07-22T12:50:23;26.10;64.60
8172;DHT22;4127;47.908;10.850;2022-07-22T12:53:02;26.10;64.60
8172;DHT22;4127;47.908;10.850;2022-07-22T12:55:52;26.20;64.70
8172;DHT22;4127;47.908;10.850;2022-07-22T12:58:26;26.20;64.70
8172;DHT22;4127;47.908;10.850;2022-07-22T13:00:55;26.20;64.80
8172;DHT22;4127;47.908;10.850;2022-07-22T13:03:23;26.20;64.60
8172;DHT22;4127;47.908;10.850;2022-07-22T13:05:56;26.20;64.60
8172;DHT22;4127;47.908;10.850;2022-07-22T13:08:24;26.20;64.60
8172;DHT22;4127;47.908;10.850;2022-07-22T13:10:53;26.20;64.50
8172;DHT22;4127;47.908;10.850;2022-07-22T13:13:21;26.20;64.70
8172;DHT22;4127;47.908;10.850;2022-07-22T13:15:49;26.20;64.50
8172;DHT22;4127;47.908;10.850;2022-07-22T13:18:17;26.30;64.60
8172;DHT22;4127;47.908;10.850;2022-07-22T13:20:44;26.30;64.50
8172;DHT22;4127;47.908;10.850;2022-07-22T13:23:10;26.30;64.80
8172;DHT22;4127;47.908;10.850;2022-07-22T13:25:38;26.30;65.10
8172;DHT22;4127;47.908;10.850;2022-07-22T13:28:05;26.30;65.10
8172;DHT22;4127;47.908;10.850;2022-07-22T13:30:32;26.30;64.60
8172;DHT22;4127;47.908;10.850;2022-07-22T13:33:01;26.30;64.50
8172;DHT22;4127;47.908;10.850;2022-07-22T13:35:27;26.40;64.50
8172;DHT22;4127;47.908;10.850;2022-07-22T13:37:56;26.40;64.50
8172;DHT22;4127;47.908;10.850;2022-07-22T13:40:24;26.40;64.40
8172;DHT22;4127;47.908;10.850;2022-07-22T13:42:51;26.00;64.00
8172;DHT22;4127;47.908;10.850;2022-07-22T13:45:18;26.40;64.30
8172;DHT22;4127;47.908;10.850;2022-07-22T13:47:45;26.40;64.20
8172;DHT22;4127;47.908;10.850;2022-07-22T13:50:12;26.40;64.10
8172;DHT22;4127;47.908;10.850;2022-07-22T13:52:38;26.50;64.30
8172;DHT22;4127;47.908;10.850;2022-07-22T13:55:05;26.50;64.10
8172;DHT22;4127;47.908;10.850;2022-07-22T13:57:34;26.50;64.20
8172;DHT22;4127;47.908;10.850;2022-07-22T14:00:02;26.50;64.10
8172;DHT22;4127;47.908;10.850;2022-07-22T14:02:29;26.50;64.10
8172;DHT22;4127;47.908;10.850;2022-07-22T14:04:56;26.60;64.00
8172;DHT22;4127;47.908;10.850;2022-07-22T14:07:23;26.60;63.90
8172;DHT22;4127;47.908;10.850;2022-07-22T14:09:49;26.60;63.80
8172;DHT22;4127;47.908;10.850;2022-07-22T14:12:16;26.60;63.80
8172;DHT22;4127;47.908;10.850;2022-07-22T14:14:43;26.70;63.80
8172;DHT22;4127;47.908;10.850;2022-07-22T14:17:10;26.80;63.50
8172;DHT22;4127;47.908;10.850;2022-07-22T14:19:38;27.30;62.50
8172;DHT22;4127;47.908;10.850;2022-07-22T14:22:05;27.80;59.50
8172;DHT22;4127;47.908;10.850;2022-07-22T14:24:32;28.30;58.60
8172;DHT22;4127;47.908;10.850;2022-07-22T14:26:59;28.70;58.20
8172;DHT22;4127;47.908;10.850;2022-07-22T14:29:26;29.00;57.80
8172;DHT22;4127;47.908;10.850;2022-07-22T14:31:53;29.30;57.60
8172;DHT22;4127;47.908;10.850;2022-07-22T14:34:22;29.50;57.40
8172;DHT22;4127;47.908;10.850;2022-07-22T14:36:49;29.60;57.30
8172;DHT22;4127;47.908;10.850;2022-07-22T14:39:16;29.70;57.10
8172;DHT22;4127;47.908;10.850;2022-07-22T14:41:42;29.60;57.00
8172;DHT22;4127;47.908;10.850;2022-07-22T14:44:15;29.00;57.60
8172;DHT22;4127;47.908;10.850;2022-07-22T14:46:42;28.40;58.30
8172;DHT22;4127;47.908;10.850;2022-07-22T14:49:10;28.00;58.90
8172;DHT22;4127;47.908;10.850;2022-07-22T14:51:42;27.70;59.80
8172;DHT22;4127;47.908;10.850;2022-07-22T14:54:08;27.50;60.00
8172;DHT22;4127;47.908;10.850;2022-07-22T14:56:38;27.40;59.80
8172;DHT22;4127;47.908;10.850;2022-07-22T14:59:06;27.30;60.30
8172;DHT22;4127;47.908;10.850;2022-07-22T15:01:33;27.20;60.10
8172;DHT22;4127;47.908;10.850;2022-07-22T15:04:00;27.10;60.40
8172;DHT22;4127;47.908;10.850;2022-07-22T15:06:28;27.10;60.90
8172;DHT22;4127;47.908;10.850;2022-07-22T15:08:54;27.10;61.00
8172;DHT22;4127;47.908;10.850;2022-07-22T15:11:23;27.00;61.10
8172;DHT22;4127;47.908;10.850;2022-07-22T15:13:50;27.00;61.10
8172;DHT22;4127;47.908;10.850;2022-07-22T15:16:19;27.00;60.90
8172;DHT22;4127;47.908;10.850;2022-07-22T15:18:49;27.00;61.10
8172;DHT22;4127;47.908;10.850;2022-07-22T15:21:15;27.00;61.40
8172;DHT22;4127;47.908;10.850;2022-07-22T15:23:43;26.90;62.00
8172;DHT22;4127;47.908;10.850;2022-07-22T15:26:09;27.10;61.20
8172;DHT22;4127;47.908;10.850;2022-07-22T15:28:36;27.00;61.00
8172;DHT22;4127;47.908;10.850;2022-07-22T15:31:09;27.10;61.00
8172;DHT22;4127;47.908;10.850;2022-07-22T15:33:37;27.10;61.10
8172;DHT22;4127;47.908;10.850;2022-07-22T15:36:06;27.10;61.00
8172;DHT22;4127;47.908;10.850;2022-07-22T15:38:35;27.10;60.90
8172;DHT22;4127;47.908;10.850;2022-07-22T15:41:03;27.20;61.00
8172;DHT22;4127;47.908;10.850;2022-07-22T15:43:30;27.20;61.10
8172;DHT22;4127;47.908;10.850;2022-07-22T15:45:57;27.20;61.10
8172;DHT22;4127;47.908;10.850;2022-07-22T15:48:24;27.30;61.30
8172;DHT22;4127;47.908;10.850;2022-07-22T15:50:51;27.30;61.10
8172;DHT22;4127;47.908;10.850;2022-07-22T15:53:23;27.30;60.90
8172;DHT22;4127;47.908;10.850;2022-07-22T15:55:50;27.30;61.00
8172;DHT22;4127;47.908;10.850;2022-07-22T15:58:17;27.30;60.80
8172;DHT22;4127;47.908;10.850;2022-07-22T16:01:03;27.40;60.90
8172;DHT22;4127;47.908;10.850;2022-07-22T16:03:31;27.40;60.70
8172;DHT22;4127;47.908;10.850;2022-07-22T16:05:57;27.40;60.60
8172;DHT22;4127;47.908;10.850;2022-07-22T16:08:24;27.40;60.50
8172;DHT22;4127;47.908;10.850;2022-07-22T16:10:51;27.50;60.50
8172;DHT22;4127;47.908;10.850;2022-07-22T16:13:18;27.50;60.50
8172;DHT22;4127;47.908;10.850;2022-07-22T16:15:45;27.50;60.50
8172;DHT22;4127;47.908;10.850;2022-07-22T16:18:13;27.50;60.30